Flight Track Log - Related Links

Times and Time Zones

All times are in EDT time to prevent confusion due to time zone crossing. See the AWE403 flight status page for this flight to view local times or setup timezone preferences in your user account.

Time Position Orientation Groundspeed Altitude Reporting Facility
EDT Latitude Longitude Course Direction KTS MPH feet Rate Location/Type
Sun 02:20:36 PM 37.6500 -122.3500 38° Northeast 159 183 2,000  Level Northern Cal TRACON
Sun 02:21:36 PM 37.6833 -122.3000 50° Northeast 187 215 3,100 1,300 Climbing Northern Cal TRACON
Sun 02:22:36 PM 37.7333 -122.2333 47° Northeast 284 327 4,600 1,900 Climbing Northern Cal TRACON
Sun 02:23:36 PM 37.7833 -122.1833 38° Northeast 273 314 6,900 2,400 Climbing Northern Cal TRACON
Sun 02:24:00 PM 38.1258 -121.8576 38° Northeast  Level FlightAware Approximate
Sun 02:24:31 PM 37.8500 -122.1333 31° Northeast 292 336 9,200  Level Northern Cal TRACON
Sun 02:25:00 PM 38.2300 -121.7534 38° Northeast  Level FlightAware Approximate
Sun 02:25:18 PM 37.8825 -122.0914 46° Northeast 292 336 10,300  Level Oakland Center
Sun 02:26:20 PM 37.9747 -122.0036 37° Northeast 350 403 11,600 1,561 Climbing Oakland Center
Sun 02:27:21 PM 38.0600 -121.9219 37° Northeast 383 441 13,500 1,854 Climbing Oakland Center
Sun 02:28:23 PM 38.1481 -121.8381 37° Northeast 395 455 15,400 1,742 Climbing Oakland Center
Sun 02:29:25 PM 38.2375 -121.7517 37° Northeast 404 465 17,100 1,366 Climbing Oakland Center
Sun 02:30:26 PM 38.3300 -121.6631 37° Northeast 415 478 18,200 1,268 Climbing Oakland Center
Sun 02:31:28 PM 38.4244 -121.5703 38° Northeast 425 489 19,700 1,268 Climbing Oakland Center
Sun 02:32:29 PM 38.5044 -121.4489 50° Northeast 451 519 20,800 1,268 Climbing Oakland Center
Sun 02:33:31 PM 38.5956 -121.2928 53° Northeast 457 526 22,300 1,317 Climbing Oakland Center
Sun 02:34:32 PM 38.6736 -121.1575 54° Northeast 469 540 23,500 1,073 Climbing Oakland Center
Sun 02:35:34 PM 38.7439 -121.0356 54° Northeast 471 542 24,500 927 Climbing Oakland Center
Sun 02:36:35 PM 38.8236 -120.8983 53° Northeast 477 549 25,400 976 Climbing Oakland Center
Sun 02:37:37 PM 38.9200 -120.7303 54° Northeast 486 559 26,500 968 Climbing Oakland Center
Sun 02:38:39 PM 39.0019 -120.5889 53° Northeast 492 566 27,400 829 Climbing Oakland Center
Sun 02:39:40 PM 39.0842 -120.4447 54° Northeast 498 573 28,200 927 Climbing Oakland Center
Sun 02:40:42 PM 39.1669 -120.3008 53° Northeast 499 574 29,300 976 Climbing Oakland Center
Sun 02:41:43 PM 39.2481 -120.1567 54° Northeast 496 571 30,200 1,024 Climbing Oakland Center
Sun 02:42:45 PM 39.3347 -119.9947 55° Northeast 491 565 31,400 1,024 Climbing Oakland Center
Sun 02:43:46 PM 39.4111 -119.8614 53° Northeast 482 555 32,300 683 Climbing Oakland Center
Sun 02:44:48 PM 39.4858 -119.7250 55° Northeast 484 557 32,800 339 Climbing Oakland Center
Sun 02:45:50 PM 39.5678 -119.5600 57° Northeast 489 563 33,000 98 Climbing Oakland Center
Sun 02:46:51 PM 39.6314 -119.4125 61° Northeast 491 565 33,000  Level Oakland Center
Sun 02:47:53 PM 39.7056 -119.2417 61° Northeast 488 562 33,000  Level Oakland Center
Sun 02:48:54 PM 39.7706 -119.0942 60° Northeast 490 564 33,000  Level Oakland Center
Sun 02:49:56 PM 39.8300 -118.9467 62° Northeast 485 558 33,000  Level Oakland Center
Sun 02:50:57 PM 39.9022 -118.7742 61° Northeast 484 557 33,000  Level Oakland Center
Sun 02:51:59 PM 39.9642 -118.6264 61° Northeast 485 558 33,000  Level Oakland Center
Sun 02:53:00 PM 40.0328 -118.4533 63° Northeast 482 555 33,000  Level Oakland Center
Sun 02:54:02 PM 40.0942 -118.3039 62° Northeast 485 558 33,000  Level Oakland Center
Sun 02:55:04 PM 40.1650 -118.1294 62° Northeast 486 559 33,000  Level Oakland Center
Sun 02:56:05 PM 40.2253 -117.9806 62° Northeast 484 557 33,000  Level Oakland Center
Sun 02:57:07 PM 40.2858 -117.8311 62° Northeast 485 558 33,000  Level Oakland Center
Sun 02:58:08 PM 40.3561 -117.6561 62° Northeast 485 558 33,000  Level Oakland Center
Sun 02:59:10 PM 40.4161 -117.5067 62° Northeast 483 556 33,000  Level Oakland Center
Sun 03:00:12 PM 40.4864 -117.3297 62° Northeast 485 558 33,000  Level Oakland Center
Sun 03:01:13 PM 40.5469 -117.1794 62° Northeast 485 558 33,000  Level Oakland Center
Sun 03:02:15 PM 40.6061 -117.0247 63° Northeast 488 562 33,000  Level Oakland Center
Sun 03:03:16 PM 40.6764 -116.8453 63° Northeast 488 562 33,000  Level Oakland Center
Sun 03:04:18 PM 40.7356 -116.6914 63° Northeast 488 562 33,000  Level Oakland Center
Sun 03:05:31 PM 40.8153 -116.4867 63° Northeast 487 560 33,000  Level Salt Lake Center
Sun 03:06:33 PM 40.8753 -116.3317 63° Northeast 489 563 33,000  Level Salt Lake Center
Sun 03:07:35 PM 40.9336 -116.1767 63° Northeast 489 563 33,000  Level Salt Lake Center
Sun 03:08:37 PM 40.9972 -115.9942 65° Northeast 490 564 33,000  Level Salt Lake Center
Sun 03:09:39 PM 41.0275 -115.8203 77° East 500 575 33,000  Level Salt Lake Center
Sun 03:10:40 PM 41.0550 -115.6158 80° East 502 578 33,000  Level Salt Lake Center
Sun 03:11:42 PM 41.0789 -115.4428 80° East 502 578 33,000  Level Salt Lake Center
Sun 03:12:44 PM 41.1075 -115.2414 79° East 501 577 33,000  Level Salt Lake Center
Sun 03:13:46 PM 41.1303 -115.0694 80° East 499 574 33,000  Level Salt Lake Center
Sun 03:14:48 PM 41.1536 -114.8967 80° East 499 574 33,000  Level Salt Lake Center
Sun 03:15:50 PM 41.1789 -114.7144 79° East 495 570 33,000  Level Salt Lake Center
Sun 03:16:51 PM 41.2022 -114.5356 80° East 494 568 33,000  Level Salt Lake Center
Sun 03:17:53 PM 41.2294 -114.3203 80° East 493 567 33,000  Level Salt Lake Center
Sun 03:18:55 PM 41.2539 -114.1419 80° East 493 567 33,000  Level Salt Lake Center
Sun 03:19:57 PM 41.2769 -113.9622 80° East 493 567 33,000  Level Salt Lake Center
Sun 03:20:59 PM 41.2992 -113.7819 81° East 494 568 33,000  Level Salt Lake Center
Sun 03:22:00 PM 41.3214 -113.6014 81° East 494 568 33,000  Level Salt Lake Center
Sun 03:23:02 PM 41.3428 -113.4225 81° East 493 567 33,000  Level Salt Lake Center
Sun 03:24:04 PM 41.3650 -113.2439 81° East 492 566 33,000  Level Salt Lake Center
Sun 03:25:06 PM 41.3900 -113.0292 81° East 490 564 33,000  Level Salt Lake Center
Sun 03:26:08 PM 41.4117 -112.8486 81° East 491 565 33,000  Level Salt Lake Center
Sun 03:27:10 PM 41.4325 -112.6692 81° East 491 565 33,000  Level Salt Lake Center
Sun 03:28:12 PM 41.4522 -112.4906 82° East 489 563 33,000  Level Salt Lake Center
Sun 03:29:13 PM 41.4733 -112.3122 81° East 488 562 33,000  Level Salt Lake Center
Sun 03:30:15 PM 41.4922 -112.1331 82° East 488 562 33,000  Level Salt Lake Center
Sun 03:31:17 PM 41.5125 -111.9536 81° East 487 560 33,000  Level Salt Lake Center
Sun 03:32:19 PM 41.5317 -111.7736 82° East 487 560 33,000  Level Salt Lake Center
Sun 03:33:21 PM 41.5542 -111.5603 82° East 485 558 33,000  Level Salt Lake Center
Sun 03:34:22 PM 41.5725 -111.3839 82° East 481 554 33,000  Level Salt Lake Center
Sun 03:35:24 PM 41.5897 -111.2086 82° East 478 550 33,000  Level Salt Lake Center
Sun 03:36:26 PM 41.6086 -111.0342 82° East 477 549 33,000  Level Salt Lake Center
Sun 03:37:28 PM 41.6253 -110.8622 83° East 477 549 33,000  Level Salt Lake Center
Sun 03:38:30 PM 41.6439 -110.6647 83° East 480 552 33,000  Level Salt Lake Center
Sun 03:39:32 PM 41.6606 -110.4944 82° East 483 556 33,000  Level Salt Lake Center
Sun 03:40:33 PM 41.6794 -110.2969 83° East 481 554 33,000  Level Salt Lake Center
Sun 03:41:35 PM 41.6950 -110.1275 83° East 481 554 33,000  Level Salt Lake Center
Sun 03:42:37 PM 41.7128 -109.9294 83° East 481 554 33,000  Level Salt Lake Center
Sun 03:43:39 PM 41.7292 -109.7592 83° East 481 554 33,000  Level Salt Lake Center
Sun 03:44:41 PM 41.7469 -109.5597 83° East 481 554 33,000  Level Salt Lake Center
Sun 03:45:42 PM 41.7611 -109.3900 84° East 480 552 33,000  Level Salt Lake Center
Sun 03:46:44 PM 41.7764 -109.2211 83° East 479 551 33,000  Level Salt Lake Center
Sun 03:47:46 PM 41.7917 -109.0231 84° East 476 548 33,000  Level Salt Lake Center
Sun 03:48:48 PM 41.8061 -108.8539 83° East 476 548 33,000  Level Salt Lake Center
Sun 03:49:50 PM 41.8225 -108.6536 84° East 478 550 33,000  Level Salt Lake Center
Sun 03:50:51 PM 41.8353 -108.4828 84° East 478 550 33,000 49 Level Salt Lake Center
Sun 03:51:53 PM 41.8481 -108.3103 84° East 484 557 33,100  Climbing Salt Lake Center
Sun 03:52:55 PM 41.8628 -108.1092 84° East 484 557 33,000 -48 Descending Salt Lake Center
Sun 03:53:57 PM 41.8772 -107.9403 83° East 481 554 33,000  Level Salt Lake Center
Sun 03:54:58 PM 41.8894 -107.7400 85° East 480 552 33,000  Level Salt Lake Center
Sun 03:56:00 PM 41.9014 -107.5703 85° East 479 551 33,000  Level Salt Lake Center
Sun 03:57:02 PM 41.9156 -107.3719 84° East 479 551 33,000  Level Salt Lake Center
Sun 03:58:04 PM 41.9275 -107.2028 85° East 478 550 33,000  Level Salt Lake Center
Sun 03:59:05 PM 41.9381 -107.0328 85° East 477 549 33,000  Level Salt Lake Center
Sun 04:00:07 PM 41.9489 -106.8350 86° East 476 548 33,000  Level Salt Lake Center
Sun 04:01:09 PM 41.9611 -106.6461 85° East 474 545 33,000  Level Salt Lake Center
Sun 04:02:11 PM 41.9706 -106.4772 86° East 473 544 33,000  Level Salt Lake Center
Sun 04:03:12 PM 41.9811 -106.3103 85° East 473 544 33,000  Level Salt Lake Center
Sun 04:04:14 PM 41.9933 -106.1142 85° East 473 544 33,000  Level Salt Lake Center
Sun 04:05:16 PM 42.0019 -105.9456 86° East 473 544 33,000  Level Salt Lake Center
Sun 04:06:33 PM 42.0175 -105.7247 85° East 470 541 33,000 129 Level Denver Center
Sun 04:07:35 PM 42.0297 -105.5331 85° East 465 535 33,300 629 Climbing Denver Center
Sun 04:08:37 PM 42.0386 -105.3728 86° East 457 526 34,300 774 Climbing Denver Center
Sun 04:09:39 PM 42.0492 -105.1844 86° East 455 524 34,900 339 Climbing Denver Center
Sun 04:10:41 PM 42.0583 -105.0233 86° East 455 524 35,000 48 Climbing Denver Center
Sun 04:11:43 PM 42.0689 -104.8325 86° East 456 525 35,000  Level Denver Center
Sun 04:12:46 PM 42.0775 -104.6703 86° East 457 526 35,000  Level Denver Center
Sun 04:13:48 PM 42.0864 -104.4806 86° East 457 526 35,000  Level Denver Center
Sun 04:14:50 PM 42.0950 -104.3189 86° East 457 526 35,000  Level Denver Center
Sun 04:15:52 PM 42.1036 -104.1281 86° East 458 527 35,000  Level Denver Center
Sun 04:16:54 PM 42.1133 -103.9369 86° East 459 528 35,000  Level Denver Center
Sun 04:17:56 PM 42.1217 -103.7719 86° East 461 531 35,000  Level Denver Center
Sun 04:18:58 PM 42.1292 -103.5800 87° East 461 531 35,000  Level Denver Center
Sun 04:20:00 PM 42.1356 -103.4139 87° East 462 532 35,000  Level Denver Center
Sun 04:21:02 PM 42.1431 -103.2486 86° East 463 533 35,000  Level Denver Center
Sun 04:22:04 PM 42.1508 -103.0547 87° East 464 534 35,000  Level Denver Center
Sun 04:23:06 PM 42.1569 -102.8897 87° East 464 534 35,000  Level Denver Center
Sun 04:24:08 PM 42.1633 -102.6983 87° East 462 532 35,000  Level Denver Center
Sun 04:25:11 PM 42.1689 -102.5336 87° East 462 532 35,000  Level Denver Center
Sun 04:26:13 PM 42.1764 -102.3417 87° East 462 532 35,000  Level Denver Center
Sun 04:27:15 PM 42.1833 -102.1592 87° East 467 537 35,000  Level Denver Center
Sun 04:28:17 PM 42.1875 -101.9931 88° East 467 537 35,000  Level Denver Center
Sun 04:29:19 PM 42.1933 -101.7992 88° East 464 534 35,000  Level Denver Center
Sun 04:30:21 PM 42.1967 -101.6336 88° East 464 534 35,000  Level Denver Center
Sun 04:31:23 PM 42.2022 -101.4403 88° East 463 533 35,000  Level Denver Center
Sun 04:32:25 PM 42.2064 -101.2750 88° East 462 532 35,000  Level Denver Center
Sun 04:33:27 PM 42.2097 -101.0836 89° East 457 526 35,000  Level Denver Center
Sun 04:34:29 PM 42.2131 -100.9206 88° East 457 526 35,000  Level Denver Center
Sun 04:35:31 PM 42.2169 -100.7561 88° East 456 525 35,000  Level Denver Center
Sun 04:36:33 PM 42.2203 -100.5658 89° East 456 525 35,000  Level Denver Center
Sun 04:37:36 PM 42.2222 -100.4028 89° East 455 524 35,000  Level Denver Center
Sun 04:38:38 PM 42.2253 -100.2094 89° East 456 525 35,000  Level Denver Center
Sun 04:39:40 PM 42.2281 -100.0442 89° East 457 526 35,000  Level Denver Center
Sun 04:40:42 PM 42.2294 -99.8497 89° East 462 532 35,000  Level Denver Center
Sun 04:41:44 PM 42.2314 -99.6789 89° East 462 532 35,000 -194 Level Denver Center
Sun 04:42:46 PM 42.2331 -99.5056 89° East 462 532 34,600 -677 Descending Denver Center
Sun 04:43:48 PM 42.2342 -99.3350 89° East 456 525 33,600 -919 Descending Denver Center
Sun 04:44:50 PM 42.2353 -99.1658 89° East 455 524 32,700 -1,016 Descending Denver Center
Sun 04:45:52 PM 42.2342 -98.9597 90° East 454 522 31,500 -1,065 Descending Denver Center
Sun 04:46:54 PM 42.2333 -98.7822 90° East 468 539 30,500 -968 Descending Denver Center
Sun 04:47:56 PM 42.2328 -98.6083 90° East 468 539 29,500 -930 Descending Denver Center
Sun 04:49:03 PM 42.2328 -98.4339 90° East 463 533 28,500 -930 Descending Minneapolis Center
Sun 04:50:05 PM 42.2300 -98.2614 91° East 461 531 27,500 -732 Descending Minneapolis Center
Sun 04:51:06 PM 42.2244 -98.0586 92° East 454 522 27,000 -244 Descending Minneapolis Center
Sun 04:52:08 PM 42.1786 -97.8906 110° East 471 542 27,000  Level Minneapolis Center
Sun 04:53:10 PM 42.1392 -97.7428 110° East 471 542 27,000  Level Minneapolis Center
Sun 04:54:12 PM 42.0958 -97.5781 109° East 470 541 27,000  Level Minneapolis Center
Sun 04:55:14 PM 42.0556 -97.3794 105° East 466 536 27,000  Level Minneapolis Center
Sun 04:56:16 PM 42.0567 -97.2133 89° East 447 514 27,000  Level Minneapolis Center
Sun 04:57:17 PM 42.0556 -97.0478 90° East 445 512 27,000  Level Minneapolis Center
Sun 04:58:19 PM 42.0564 -96.8808 90° East 445 512 27,000  Level Minneapolis Center
Sun 04:59:21 PM 42.0550 -96.7150 91° East 445 512 27,000  Level Minneapolis Center
Sun 05:00:23 PM 42.0536 -96.5483 91° East 445 512 27,000  Level Minneapolis Center
Sun 05:01:25 PM 42.0531 -96.3828 90° East 445 512 27,000  Level Minneapolis Center
Sun 05:02:26 PM 42.0519 -96.2161 90° East 445 512 27,000  Level Minneapolis Center
Sun 05:03:28 PM 42.0503 -96.0175 91° East 443 510 27,000  Level Minneapolis Center
Sun 05:04:30 PM 42.0486 -95.8514 91° East 443 510 27,000 -97 Level Minneapolis Center
Sun 05:05:32 PM 42.0472 -95.6858 91° East 443 510 26,800 -919 Descending Minneapolis Center
Sun 05:06:34 PM 42.0447 -95.5253 91° East 432 497 25,100 -878 Descending Minneapolis Center
Sun 05:07:35 PM 42.0419 -95.3678 91° East 425 489 25,000 -49 Descending Minneapolis Center
Sun 05:08:37 PM 42.0403 -95.2097 91° East 425 489 25,000  Level Minneapolis Center
Sun 05:09:39 PM 42.0372 -95.0519 91° East 421 484 25,000  Level Minneapolis Center
Sun 05:10:40 PM 42.0342 -94.8947 91° East 421 484 25,000  Level Minneapolis Center
Sun 05:11:42 PM 42.0319 -94.7381 91° East 421 484 25,000  Level Minneapolis Center
Sun 05:12:44 PM 42.0272 -94.5489 92° East 421 484 25,000  Level Minneapolis Center
Sun 05:13:45 PM 42.0236 -94.3908 92° East 421 484 25,000  Level Minneapolis Center
Sun 05:14:47 PM 42.0194 -94.2333 92° East 422 486 25,000  Level Minneapolis Center
Sun 05:15:49 PM 42.0164 -94.0756 91° East 422 486 25,000 -242 Level Minneapolis Center
Sun 05:16:51 PM 42.0117 -93.9239 92° East 411 473 24,500 -780 Descending Minneapolis Center
Sun 05:17:52 PM 42.0075 -93.7689 92° East 410 472 23,400 -732 Descending Minneapolis Center
Sun 05:18:54 PM 42.0039 -93.6178 92° East 409 471 23,000 -195 Descending Minneapolis Center
Sun 05:19:55 PM 41.9989 -93.4628 92° East 414 476 23,000  Level Minneapolis Center
Sun 05:20:57 PM 41.9936 -93.2775 92° East 415 478 23,000  Level Minneapolis Center
Sun 05:21:59 PM 41.9878 -93.1231 93° East 415 478 23,000  Level Minneapolis Center
Sun 05:23:00 PM 41.9819 -92.9689 93° East 415 478 23,000  Level Minneapolis Center
Sun 05:24:02 PM 41.9758 -92.7994 93° East 415 478 23,000  Level Minneapolis Center
Sun 05:24:40 PM 41.9733 -92.7222 92° East 417 480 23,000  Level Chicago Center
Sun 05:25:42 PM 41.9664 -92.5364 93° East 418 481 23,000  Level Chicago Center
Sun 05:26:44 PM 41.9606 -92.3831 93° East 416 479 23,000  Level Chicago Center
Sun 05:27:47 PM 41.9539 -92.2292 93° East 418 481 23,000  Level Chicago Center
Sun 05:28:49 PM 41.9472 -92.0761 93° East 416 479 23,000  Level Chicago Center
Sun 05:29:51 PM 41.9406 -91.9219 93° East 417 480 23,000  Level Chicago Center
Sun 05:30:54 PM 41.9322 -91.7372 93° East 418 481 23,000  Level Chicago Center
Sun 05:31:56 PM 41.9250 -91.5822 94° East 421 484 23,000  Level Chicago Center
Sun 05:32:58 PM 41.9181 -91.4267 93° East 422 486 23,000  Level Chicago Center
Sun 05:34:00 PM 41.9094 -91.2731 94° East 419 482 23,000  Level Chicago Center
Sun 05:35:03 PM 41.9003 -91.0875 94° East 419 482 23,000  Level Chicago Center
Sun 05:36:05 PM 41.8919 -90.9328 94° East 421 484 23,000  Level Chicago Center
Sun 05:37:07 PM 41.8836 -90.7769 94° East 421 484 23,000  Level Chicago Center
Sun 05:38:10 PM 41.8753 -90.6200 94° East 425 489 23,000  Level Chicago Center
Sun 05:39:12 PM 41.8625 -90.4308 95° East 429 494 23,000  Level Chicago Center
Sun 05:40:14 PM 41.8556 -90.2708 93° East 432 497 23,000  Level Chicago Center
Sun 05:41:16 PM 41.8453 -90.1083 95° East 439 505 23,000  Level Chicago Center
Sun 05:42:19 PM 41.8344 -89.9450 95° East 443 510 23,000  Level Chicago Center
Sun 05:43:21 PM 41.8236 -89.7633 95° East 444 511 23,000  Level Chicago Center
Sun 05:44:23 PM 41.8122 -89.5953 95° East 450 518 23,000  Level Chicago Center
Sun 05:45:26 PM 41.8022 -89.4269 95° East 454 522 23,000  Level Chicago Center
Sun 05:46:28 PM 41.7892 -89.2219 95° East 460 529 23,000  Level Chicago Center
Sun 05:47:30 PM 41.7767 -89.0508 96° East 462 532 23,000  Level Chicago Center
Sun 05:48:33 PM 41.7650 -88.8828 95° East 457 526 23,000  Level Chicago Center
Sun 05:49:35 PM 41.7525 -88.7136 96° East 457 526 23,000  Level Chicago Center
Sun 05:50:37 PM 41.7394 -88.5453 96° East 454 522 23,000  Level Chicago Center
Sun 05:51:40 PM 41.7283 -88.3733 95° East 460 529 23,000  Level Chicago Center
Sun 05:52:42 PM 41.7114 -88.1706 96° East 456 525 23,000  Level Chicago Center
Sun 05:53:44 PM 41.6989 -88.0006 96° East 454 522 23,000  Level Chicago Center
Sun 05:54:47 PM 41.6856 -87.8300 96° East 456 525 23,000  Level Chicago Center
Sun 05:55:49 PM 41.6708 -87.6592 97° East 458 527 23,000  Level Chicago Center
Sun 05:56:51 PM 41.6567 -87.4911 96° East 455 524 23,000  Level Chicago Center
Sun 05:57:54 PM 41.6428 -87.3189 96° East 463 533 23,000  Level Chicago Center
Sun 05:58:56 PM 41.6267 -87.1472 97° East 465 535 23,000  Level Chicago Center
Sun 05:59:58 PM 41.6089 -86.9425 97° East 462 532 23,000  Level Chicago Center
Sun 06:01:00 PM 41.5939 -86.7714 97° East 463 533 23,000  Level Chicago Center
Sun 06:02:03 PM 41.5806 -86.6186 97° East 466 536 23,000  Level Chicago Center
Sun 06:03:05 PM 41.5617 -86.4156 97° East 462 532 23,000  Level Chicago Center
Sun 06:04:07 PM 41.5458 -86.2456 97° East 462 532 23,000  Level Chicago Center
Sun 06:05:10 PM 41.5294 -86.0747 97° East 465 535 23,000  Level Chicago Center
Sun 06:06:12 PM 41.5083 -85.9081 100° East 460 529 23,000  Level Chicago Center
Sun 06:07:15 PM 41.4803 -85.7078 101° East 460 529 23,000  Level Chicago Center
Sun 06:08:17 PM 41.4586 -85.5394 100° East 468 539 23,000  Level Chicago Center
Sun 06:09:19 PM 41.4358 -85.3758 100° East 462 532 23,000  Level Chicago Center
Sun 06:10:21 PM 41.4128 -85.2114 101° East 461 531 23,000  Level Chicago Center
Sun 06:11:23 PM 41.3842 -85.0133 101° East 459 528 23,000  Level Chicago Center
Sun 06:12:25 PM 41.3603 -84.8475 101° East 459 528 23,000  Level Chicago Center
Sun 06:13:27 PM 41.3367 -84.6833 101° East 455 524 23,000 677 Level Chicago Center
Sun 06:14:29 PM 41.3122 -84.5172 101° East 458 527 24,400 1,440 Climbing Chicago Center
Sun 06:15:32 PM 41.2864 -84.3500 102° East 464 534 26,000 1,403 Climbing Chicago Center
Sun 06:16:33 PM 41.2603 -84.1783 101° East 474 545 27,300 1,415 Climbing Chicago Center
Sun 06:17:35 PM 41.2294 -83.9686 101° East 483 556 28,900 1,258 Climbing Chicago Center
Sun 06:18:37 PM 41.2019 -83.7911 102° East 491 565 29,900 1,065 Climbing Chicago Center
Sun 06:19:39 PM 41.1803 -83.6081 99° East 500 575 31,100 1,087 Climbing Chicago Center
Sun 06:20:55 PM 41.1586 -83.3583 96° East 506 582 32,400 826 Climbing Cleveland Center
Sun 06:21:57 PM 41.1361 -83.1672 99° East 512 589 33,000 290 Climbing Cleveland Center
Sun 06:22:59 PM 41.1042 -82.9836 103° East 509 586 33,000  Level Cleveland Center
Sun 06:24:02 PM 41.0728 -82.7989 103° East 509 586 33,000  Level Cleveland Center
Sun 06:25:04 PM 41.0408 -82.6136 103° East 510 587 33,000  Level Cleveland Center
Sun 06:26:06 PM 41.0083 -82.4292 103° East 511 588 33,000  Level Cleveland Center
Sun 06:27:08 PM 40.9764 -82.2456 103° East 510 587 33,000  Level Cleveland Center
Sun 06:28:10 PM 40.9386 -82.0339 103° East 510 587 33,000  Level Cleveland Center
Sun 06:29:12 PM 40.9058 -81.8531 103° East 509 586 33,000  Level Cleveland Center
Sun 06:31:16 PM 40.8406 -81.4903 103° East 508 585 33,000  Level Cleveland Center
Sun 06:32:18 PM 40.8069 -81.3064 104° East 510 587 33,000  Level Cleveland Center
Sun 06:33:21 PM 40.7653 -81.0908 104° East 514 592 33,000  Level Cleveland Center
Sun 06:34:23 PM 40.7344 -80.9294 104° East 514 592 33,000  Level Cleveland Center
Sun 06:35:26 PM 40.6914 -80.7042 104° East 523 602 33,000  Level Cleveland Center
Sun 06:36:28 PM 40.6578 -80.5297 104° East 526 605 33,000  Level Cleveland Center
Sun 06:37:30 PM 40.6175 -80.3217 104° East 526 605 33,000  Level Cleveland Center
Sun 06:38:32 PM 40.5817 -80.1392 104° East 523 602 33,000  Level Cleveland Center
Sun 06:39:35 PM 40.5436 -79.9475 105° East 522 601 33,000  Level Cleveland Center
Sun 06:40:37 PM 40.5067 -79.7636 105° East 515 593 33,000  Level Cleveland Center
Sun 06:41:40 PM 40.4694 -79.5806 105° East 515 593 33,000  Level Cleveland Center
Sun 06:42:42 PM 40.4325 -79.3972 105° East 515 593 33,000  Level Cleveland Center
Sun 06:43:44 PM 40.3936 -79.2006 104° East 514 592 33,000  Level Cleveland Center
Sun 06:44:47 PM 40.3564 -79.0192 105° East 517 595 33,000 -48 Level Cleveland Center
Sun 06:45:49 PM 40.3200 -78.7967 102° East 528 608 32,900 -768 Descending Cleveland Center
Sun 06:46:52 PM 40.3164 -78.6036 91° East 534 615 31,400 -1,536 Descending Cleveland Center
Sun 06:47:54 PM 40.3161 -78.4122 90° East 535 616 29,700 -1,680 Descending Cleveland Center
Sun 06:48:57 PM 40.3144 -78.2256 91° East 527 606 27,900 -2,016 Descending Cleveland Center
Sun 06:49:59 PM 40.3142 -78.0094 90° East 500 575 25,500 -1,440 Descending Cleveland Center
Sun 06:51:02 PM 40.3267 -77.8475 84° East 458 527 24,900 -737 Descending Cleveland Center
Sun 06:51:53 PM 40.3403 -77.7236 82° East 455 524 24,100 -1,018 Descending New York Center
Sun 06:52:54 PM 40.3369 -77.5653 92° East 444 511 23,000 -1,059 Descending New York Center
Sun 06:53:52 PM 40.3142 -77.4131 101° East 425 489 22,000 -1,000 Descending New York Center
Sun 06:54:54 PM 40.2856 -77.2553 103° East 420 483 21,000 -1,008 Descending New York Center
Sun 06:55:51 PM 40.2619 -77.1142 102° East 408 470 20,000 -915 Descending New York Center
Sun 06:56:52 PM 40.2450 -77.0039 101° East 398 458 19,200 -934 Descending New York Center
Sun 06:57:53 PM 40.2175 -76.8492 103° East 393 452 18,100 -908 Descending New York Center
Sun 06:58:51 PM 40.1950 -76.7194 103° East 381 438 17,400 -992 Descending New York Center
Sun 06:59:54 PM 40.1703 -76.5842 103° East 358 412 16,100 -1,339 Descending New York Center
Sun 07:00:52 PM 40.1492 -76.4631 103° East 345 397 14,700 -1,450 Descending New York Center
Sun 07:01:54 PM 40.1294 -76.3500 103° East 333 383 13,200 -1,350 Descending New York Center
Sun 07:02:52 PM 40.1175 -76.2514 99° East 314 361 12,000 -1,261 Descending New York Center
Sun 07:03:53 PM 40.1106 -76.1286 94° East 309 356 10,700 -1,190 Descending New York Center
Sun 07:04:53 PM 40.1133 -76.0228 88° East 304 350 9,600 -992 Descending New York Center
Sun 07:05:54 PM 40.1425 -75.9272 68° East 279 321 8,700 -908 Descending New York Center
Sun 07:06:52 PM 40.1625 -75.8500 71° East 259 298 7,800 -857 Descending New York Center
Sun 07:07:53 PM 40.1772 -75.7478 79° East 254 292 7,000 -403 Descending New York Center
Sun 07:08:51 PM 40.1892 -75.6644 79° East 254 292 7,000 50 Level New York Center
Sun 07:09:52 PM 40.2097 -75.5708 74° East 260 299 7,100 49 Climbing New York Center
Sun 07:10:53 PM 40.2217 -75.4792 80° East 260 299 7,100  Level New York Center
Sun 07:11:51 PM 40.2383 -75.3769 78° East 255 293 7,100 -50 Level New York Center
Sun 07:12:53 PM 40.2522 -75.2853 79° East 255 293 7,000 -550 Descending New York Center
Sun 07:13:51 PM 40.2083 -75.2364 140° Southeast 216 249 6,000 -508 Descending New York Center
Sun 07:14:51 PM 40.1400 -75.2239 172° South 221 254 6,000  Level New York Center
Sun 07:15:44 PM 40.0833 -75.2167 174° South 208 239 6,000  Level Philadelphia TRACON
Sun 07:16:44 PM 40.0333 -75.2000 166° South 213 245 6,000  Level Philadelphia TRACON
Sun 07:17:44 PM 39.9833 -75.1667 153° Southeast 229 264 6,000 -48 Level Philadelphia TRACON
Sun 07:18:50 PM 40.0000 -75.0833 75° East 226 260 5,900 -300 Descending Philadelphia TRACON
Sun 07:19:44 PM 40.0000 -75.0167 90° East 210 242 5,400 -474 Descending Philadelphia TRACON
Sun 07:20:44 PM 40.0167 -74.9500 72° East 196 226 5,000 -645 Descending Philadelphia TRACON
Sun 07:21:45 PM 40.0000 -74.9000 114° Southeast 207 238 4,100 -1,000 Descending Philadelphia TRACON
Sun 07:22:44 PM 39.9500 -74.9333 207° Southwest 189 217 3,000 -555 Descending Philadelphia TRACON
Sun 07:23:44 PM 39.9167 -74.9833 229° Southwest 194 223 3,000 -100 Level Philadelphia TRACON
Sun 07:24:44 PM 39.9167 -75.0500 270° West 191 220 2,800 -595 Descending Philadelphia TRACON
Sun 07:25:45 PM 39.9000 -75.1167 252° West 168 193 1,800 -900 Descending Philadelphia TRACON
Sun 07:26:44 PM 39.8833 -75.1667 247° West 142 163 1,000 -807 Descending Philadelphia TRACON
Sun 07:27:44 PM 39.8833 -75.2167 270° West 144 166 200 -800 Descending Philadelphia TRACON

Login

Don't have an account? Register now (free) for customized features, flight alerts, and more!